createdAt,value
2019-05-19T12:55:00.764Z,47.50
2019-05-19T12:59:05.157Z,49.30
2019-05-19T13:03:11.885Z,46.20
2019-05-19T13:07:14.854Z,44.80
2019-05-19T13:11:19.358Z,43.70
2019-05-19T13:15:23.969Z,43.70
2019-05-19T13:19:28.477Z,48.10
2019-05-19T13:23:35.249Z,46.40
2019-05-19T13:27:40.938Z,48.40
2019-05-19T13:31:44.838Z,48.70
2019-05-19T13:35:59.621Z,50.30
2019-05-19T13:40:00.930Z,50.50
2019-05-19T13:44:05.158Z,57.30
2019-05-19T13:48:12.450Z,74.60
2019-05-19T13:52:14.769Z,83.20
2019-05-19T13:56:18.479Z,85.00
2019-05-19T14:00:23.192Z,86.20
2019-05-19T14:04:27.976Z,85.50
2019-05-19T14:08:37.488Z,83.60
2019-05-19T14:12:39.957Z,81.50
2019-05-19T14:16:44.238Z,80.30
2019-05-19T14:20:52.969Z,70.20
2019-05-19T14:28:54.906Z,68.10
2019-05-19T14:32:52.134Z,64.60
2019-05-19T14:37:03.310Z,58.40
2019-05-19T14:43:04.972Z,58.30
2019-05-19T14:47:03.097Z,57.70
2019-05-19T14:51:07.610Z,56.90
2019-05-19T14:55:19.037Z,57.90
2019-05-19T14:59:26.289Z,60.30
2019-05-19T15:03:29.589Z,59.60
2019-05-19T15:07:33.986Z,57.80
2019-05-19T15:11:45.318Z,59.60
2019-05-19T15:15:57.934Z,60.20
2019-05-19T15:20:05.390Z,57.60
2019-05-19T15:24:09.229Z,58.60
2019-05-19T15:28:15.445Z,57.90
2019-05-19T15:32:18.953Z,60.00
2019-05-19T15:36:26.661Z,57.00
2019-05-19T15:40:58.467Z,57.20
2019-05-19T15:45:06.760Z,58.00
2019-05-19T15:49:14.183Z,58.40
2019-05-19T15:53:17.094Z,57.00
2019-05-19T15:57:22.045Z,59.30
2019-05-19T16:01:33.074Z,57.10
2019-05-19T16:05:42.418Z,58.50
2019-05-19T16:13:42.206Z,58.10
2019-05-19T16:17:42.342Z,59.60
2019-05-19T16:21:45.083Z,59.10
2019-05-19T16:27:43.917Z,59.20
2019-05-19T16:31:42.105Z,60.80
2019-05-19T16:35:53.059Z,60.50
2019-05-19T16:39:56.879Z,63.30
2019-05-19T16:44:00.425Z,64.50
2019-05-19T16:48:19.281Z,66.60
2019-05-19T16:52:32.350Z,66.30
2019-05-19T16:58:45.915Z,66.40
2019-05-19T17:03:46.598Z,67.70
2019-05-19T17:07:52.322Z,68.50
2019-05-19T17:15:47.533Z,71.30
2019-05-19T17:19:53.749Z,74.20
2019-05-19T17:23:54.683Z,74.60
2019-05-19T17:28:05.789Z,75.30
2019-05-19T17:32:08.486Z,78.60
2019-05-19T17:36:12.265Z,81.40
2019-05-19T17:40:23.273Z,81.50
2019-05-19T17:44:28.713Z,79.80
2019-05-19T17:48:35.209Z,80.20
2019-05-19T17:52:38.125Z,81.90
2019-05-19T17:58:37.773Z,84.80
2019-05-19T18:02:46.275Z,84.20
2019-05-19T18:06:54.590Z,82.60
2019-05-19T18:11:00.015Z,83.40
2019-05-19T18:15:05.512Z,85.00
2019-05-19T18:19:08.901Z,83.70
2019-05-19T18:23:20.167Z,84.10
2019-05-19T18:27:29.293Z,85.30
2019-05-19T18:31:34.582Z,85.80
2019-05-19T18:35:37.465Z,86.10
2019-05-19T18:39:48.646Z,88.50
2019-05-19T18:44:01.049Z,89.50
2019-05-19T18:48:05.909Z,90.40
2019-05-19T18:52:12.378Z,90.60
2019-05-19T18:56:15.385Z,90.60
2019-05-19T19:00:37.898Z,90.40
2019-05-19T19:05:21.898Z,90.80
2019-05-19T19:09:36.353Z,90.50
2019-05-19T19:13:38.323Z,90.40
2019-05-19T19:19:31.549Z,90.70
2019-05-19T19:24:32.675Z,90.90
2019-05-19T19:29:00.554Z,91.90
2019-05-19T19:32:59.469Z,91.50
2019-05-19T19:38:08.003Z,91.10
2019-05-19T19:42:16.543Z,91.60
2019-05-19T19:46:18.060Z,92.50
2019-05-19T19:50:29.398Z,93.90
2019-05-19T19:54:34.777Z,95.10
2019-05-19T19:58:37.776Z,96.30
2019-05-19T20:02:41.805Z,99.00
2019-05-19T20:06:45.774Z,98.30
2019-05-19T20:11:49.062Z,99.70
2019-05-19T20:15:55.090Z,99.90
2019-05-19T20:20:05.385Z,99.90
2019-05-19T20:24:07.245Z,99.90
2019-05-19T20:28:11.433Z,99.90
2019-05-19T20:32:43.959Z,99.90
2019-05-19T20:37:41.419Z,99.90
2019-05-19T20:41:47.450Z,99.90
2019-05-19T20:45:49.102Z,99.90
2019-05-19T20:50:02.316Z,99.90
2019-05-19T20:54:14.136Z,99.90
2019-05-19T20:58:18.874Z,99.90
2019-05-19T21:02:22.218Z,99.90
2019-05-19T21:06:33.938Z,99.90
2019-05-19T21:10:57.153Z,99.90
2019-05-19T21:15:00.286Z,99.90
2019-05-19T21:19:04.617Z,99.90
2019-05-19T21:23:16.776Z,99.90
2019-05-19T21:27:20.976Z,99.90
2019-05-19T21:31:24.273Z,99.90
2019-05-19T21:37:23.294Z,99.90
2019-05-19T21:47:11.109Z,99.90
2019-05-19T21:51:06.223Z,99.90
2019-05-19T21:55:09.549Z,99.90
2019-05-19T21:59:17.093Z,99.90
2019-05-19T22:03:19.839Z,99.90
2019-05-19T22:17:15.372Z,99.90
2019-05-19T22:36:57.060Z,99.90
2019-05-19T22:42:51.447Z,99.90
2019-05-19T22:54:39.998Z,99.90
2019-05-19T22:58:34.858Z,99.90
2019-05-19T23:02:38.101Z,99.90
2019-05-19T23:10:34.438Z,99.90
2019-05-19T23:24:21.761Z,99.90
2019-05-19T23:28:16.429Z,99.90
2019-05-19T23:32:19.611Z,99.90
2019-05-19T23:40:16.229Z,99.90
2019-05-19T23:50:03.006Z,99.90
2019-05-19T23:54:06.860Z,99.90
2019-05-19T23:58:08.030Z,99.90
